Seraing, Belgium
Current Conditions -  °F | °C
As of 1:20 AM on Thursday 27 Nov 2014 (Local Time) from EBLG Reporting Station
Broken Clouds Broken Clouds  
Wind Chill:   Ceiling: 4000
Heat Index:   Visibility: 6mi
Dew Point:   Wind: 10mph
Humidity: 87%   Direction: 160°SSE
Pressure: 29.83"   Gusts: NA
Location:  50.59°N, 5.52°E
Report Text: EBLG 270020Z 16009KT 9999 SCT030 BKN040 08/06 Q1010 NOSIG
Loading
Personal Weather Stations






























Interactive Weather Map New forecast layout! Learn more

10-Day Weather Forecast

Advertisements
Track Severe Weather on mobile